sensor_id;sensor_type;location;lat;lon;timestamp;temperature;humidity
9847;DHT22;68671;50.084;8.794;2023-06-22T00:00:34;25.50;69.70
9847;DHT22;68671;50.084;8.794;2023-06-22T00:03:01;25.40;69.90
9847;DHT22;68671;50.084;8.794;2023-06-22T00:05:28;25.40;70.10
9847;DHT22;68671;50.084;8.794;2023-06-22T00:07:56;25.40;70.40
9847;DHT22;68671;50.084;8.794;2023-06-22T00:10:23;25.40;70.70
9847;DHT22;68671;50.084;8.794;2023-06-22T00:12:50;25.40;71.00
9847;DHT22;68671;50.084;8.794;2023-06-22T00:15:17;25.40;71.30
9847;DHT22;68671;50.084;8.794;2023-06-22T00:17:45;25.50;71.50
9847;DHT22;68671;50.084;8.794;2023-06-22T00:20:12;25.50;71.70
9847;DHT22;68671;50.084;8.794;2023-06-22T00:22:40;25.50;72.10
9847;DHT22;68671;50.084;8.794;2023-06-22T00:25:09;25.40;72.50
9847;DHT22;68671;50.084;8.794;2023-06-22T00:27:36;25.40;72.90
9847;DHT22;68671;50.084;8.794;2023-06-22T00:30:05;25.40;73.40
9847;DHT22;68671;50.084;8.794;2023-06-22T00:32:32;25.50;73.80
9847;DHT22;68671;50.084;8.794;2023-06-22T00:34:59;25.50;74.00
9847;DHT22;68671;50.084;8.794;2023-06-22T00:37:26;25.50;73.90
9847;DHT22;68671;50.084;8.794;2023-06-22T00:39:55;25.60;73.70
9847;DHT22;68671;50.084;8.794;2023-06-22T00:42:23;25.60;73.50
9847;DHT22;68671;50.084;8.794;2023-06-22T00:44:50;25.60;73.40
9847;DHT22;68671;50.084;8.794;2023-06-22T00:47:18;25.70;73.30
9847;DHT22;68671;50.084;8.794;2023-06-22T00:49:47;25.70;73.20
9847;DHT22;68671;50.084;8.794;2023-06-22T00:52:17;25.60;73.40
9847;DHT22;68671;50.084;8.794;2023-06-22T00:54:46;25.60;73.80
9847;DHT22;68671;50.084;8.794;2023-06-22T00:57:14;25.60;74.10
9847;DHT22;68671;50.084;8.794;2023-06-22T00:59:44;25.60;74.60
9847;DHT22;68671;50.084;8.794;2023-06-22T01:02:11;25.50;75.10
9847;DHT22;68671;50.084;8.794;2023-06-22T01:04:39;25.50;75.50
9847;DHT22;68671;50.084;8.794;2023-06-22T01:07:13;25.50;76.00
9847;DHT22;68671;50.084;8.794;2023-06-22T01:09:49;25.50;76.60
9847;DHT22;68671;50.084;8.794;2023-06-22T01:12:18;25.50;77.00
9847;DHT22;68671;50.084;8.794;2023-06-22T01:14:52;25.50;77.50
9847;DHT22;68671;50.084;8.794;2023-06-22T01:17:23;25.40;77.90
9847;DHT22;68671;50.084;8.794;2023-06-22T01:19:54;25.40;78.70
9847;DHT22;68671;50.084;8.794;2023-06-22T01:22:23;25.30;79.20
9847;DHT22;68671;50.084;8.794;2023-06-22T01:24:57;25.30;79.80
9847;DHT22;68671;50.084;8.794;2023-06-22T01:27:36;25.30;80.60
9847;DHT22;68671;50.084;8.794;2023-06-22T01:30:09;25.20;80.80
9847;DHT22;68671;50.084;8.794;2023-06-22T01:32:38;25.20;81.50
9847;DHT22;68671;50.084;8.794;2023-06-22T01:35:07;25.10;82.10
9847;DHT22;68671;50.084;8.794;2023-06-22T01:37:36;25.10;82.50
9847;DHT22;68671;50.084;8.794;2023-06-22T01:40:05;25.00;83.10
9847;DHT22;68671;50.084;8.794;2023-06-22T01:42:34;25.00;83.80
9847;DHT22;68671;50.084;8.794;2023-06-22T01:45:02;24.90;84.70
9847;DHT22;68671;50.084;8.794;2023-06-22T01:47:31;24.80;85.30
9847;DHT22;68671;50.084;8.794;2023-06-22T01:49:58;24.80;86.10
9847;DHT22;68671;50.084;8.794;2023-06-22T01:52:26;24.70;86.80
9847;DHT22;68671;50.084;8.794;2023-06-22T01:54:53;24.70;87.60
9847;DHT22;68671;50.084;8.794;2023-06-22T01:57:20;24.70;88.10
9847;DHT22;68671;50.084;8.794;2023-06-22T01:59:52;24.80;88.80
9847;DHT22;68671;50.084;8.794;2023-06-22T02:02:23;24.80;89.20
9847;DHT22;68671;50.084;8.794;2023-06-22T02:04:59;24.80;89.60
9847;DHT22;68671;50.084;8.794;2023-06-22T02:07:32;24.80;90.00
9847;DHT22;68671;50.084;8.794;2023-06-22T02:10:00;24.80;90.20
9847;DHT22;68671;50.084;8.794;2023-06-22T02:12:29;24.80;90.40
9847;DHT22;68671;50.084;8.794;2023-06-22T02:14:58;24.80;91.00
9847;DHT22;68671;50.084;8.794;2023-06-22T02:17:27;24.80;90.70
9847;DHT22;68671;50.084;8.794;2023-06-22T02:19:55;24.80;90.80
9847;DHT22;68671;50.084;8.794;2023-06-22T02:22:22;24.90;90.80
9847;DHT22;68671;50.084;8.794;2023-06-22T02:24:49;24.90;90.80
9847;DHT22;68671;50.084;8.794;2023-06-22T02:27:18;25.00;90.90
9847;DHT22;68671;50.084;8.794;2023-06-22T02:29:45;24.90;91.00
9847;DHT22;68671;50.084;8.794;2023-06-22T02:32:12;24.80;91.00
9847;DHT22;68671;50.084;8.794;2023-06-22T02:34:40;24.90;91.20
9847;DHT22;68671;50.084;8.794;2023-06-22T02:37:09;24.80;91.60
9847;DHT22;68671;50.084;8.794;2023-06-22T02:39:38;24.80;91.40
9847;DHT22;68671;50.084;8.794;2023-06-22T02:42:06;24.80;91.40
9847;DHT22;68671;50.084;8.794;2023-06-22T02:44:33;24.80;91.50
9847;DHT22;68671;50.084;8.794;2023-06-22T02:47:00;24.80;91.70
9847;DHT22;68671;50.084;8.794;2023-06-22T02:49:27;24.80;91.90
9847;DHT22;68671;50.084;8.794;2023-06-22T02:51:54;24.70;91.90
9847;DHT22;68671;50.084;8.794;2023-06-22T02:54:22;24.70;92.10
9847;DHT22;68671;50.084;8.794;2023-06-22T02:56:49;24.60;92.30
9847;DHT22;68671;50.084;8.794;2023-06-22T02:59:16;24.60;92.60
9847;DHT22;68671;50.084;8.794;2023-06-22T03:01:43;24.60;92.80
9847;DHT22;68671;50.084;8.794;2023-06-22T03:04:10;24.40;93.00
9847;DHT22;68671;50.084;8.794;2023-06-22T03:06:37;24.40;93.30
9847;DHT22;68671;50.084;8.794;2023-06-22T03:09:06;24.30;93.50
9847;DHT22;68671;50.084;8.794;2023-06-22T03:11:35;24.20;93.90
9847;DHT22;68671;50.084;8.794;2023-06-22T03:14:02;24.20;94.20
9847;DHT22;68671;50.084;8.794;2023-06-22T03:16:28;24.20;94.40
9847;DHT22;68671;50.084;8.794;2023-06-22T03:18:56;24.20;94.60
9847;DHT22;68671;50.084;8.794;2023-06-22T03:21:23;24.20;94.90
9847;DHT22;68671;50.084;8.794;2023-06-22T03:23:50;24.20;95.10
9847;DHT22;68671;50.084;8.794;2023-06-22T03:26:18;24.20;95.20
9847;DHT22;68671;50.084;8.794;2023-06-22T03:28:47;24.10;95.30
9847;DHT22;68671;50.084;8.794;2023-06-22T03:31:14;24.10;95.60
9847;DHT22;68671;50.084;8.794;2023-06-22T03:33:40;24.10;95.80
9847;DHT22;68671;50.084;8.794;2023-06-22T03:36:07;24.00;96.10
9847;DHT22;68671;50.084;8.794;2023-06-22T03:38:35;24.00;96.40
9847;DHT22;68671;50.084;8.794;2023-06-22T03:41:02;23.80;96.60
9847;DHT22;68671;50.084;8.794;2023-06-22T03:43:29;23.80;97.10
9847;DHT22;68671;50.084;8.794;2023-06-22T03:45:57;23.70;97.40
9847;DHT22;68671;50.084;8.794;2023-06-22T03:48:24;23.60;97.80
9847;DHT22;68671;50.084;8.794;2023-06-22T03:50:51;23.60;98.20
9847;DHT22;68671;50.084;8.794;2023-06-22T03:53:18;23.60;98.60
9847;DHT22;68671;50.084;8.794;2023-06-22T03:55:48;23.60;98.90
9847;DHT22;68671;50.084;8.794;2023-06-22T03:58:16;23.60;99.10
9847;DHT22;68671;50.084;8.794;2023-06-22T04:00:44;23.70;99.60
9847;DHT22;68671;50.084;8.794;2023-06-22T04:03:13;23.80;99.80
9847;DHT22;68671;50.084;8.794;2023-06-22T04:05:40;23.80;99.90
9847;DHT22;68671;50.084;8.794;2023-06-22T04:08:07;23.80;99.90
9847;DHT22;68671;50.084;8.794;2023-06-22T04:10:34;23.90;99.90
9847;DHT22;68671;50.084;8.794;2023-06-22T04:13:02;24.10;99.90
9847;DHT22;68671;50.084;8.794;2023-06-22T04:15:29;24.20;99.90
9847;DHT22;68671;50.084;8.794;2023-06-22T04:17:56;24.30;99.90
9847;DHT22;68671;50.084;8.794;2023-06-22T04:20:24;24.40;99.70
9847;DHT22;68671;50.084;8.794;2023-06-22T04:22:52;24.40;99.70
9847;DHT22;68671;50.084;8.794;2023-06-22T04:25:20;24.40;99.60
9847;DHT22;68671;50.084;8.794;2023-06-22T04:27:47;24.40;99.40
9847;DHT22;68671;50.084;8.794;2023-06-22T04:30:14;24.40;99.40
9847;DHT22;68671;50.084;8.794;2023-06-22T04:32:42;24.30;99.30
9847;DHT22;68671;50.084;8.794;2023-06-22T04:35:09;24.30;99.50
9847;DHT22;68671;50.084;8.794;2023-06-22T04:37:38;24.20;99.60
9847;DHT22;68671;50.084;8.794;2023-06-22T04:40:06;24.10;99.90
9847;DHT22;68671;50.084;8.794;2023-06-22T04:42:34;24.10;99.90
9847;DHT22;68671;50.084;8.794;2023-06-22T04:45:02;24.00;99.90
9847;DHT22;68671;50.084;8.794;2023-06-22T04:47:30;24.00;99.90
9847;DHT22;68671;50.084;8.794;2023-06-22T04:49:57;23.90;99.90
9847;DHT22;68671;50.084;8.794;2023-06-22T04:52:24;23.90;99.90
9847;DHT22;68671;50.084;8.794;2023-06-22T04:54:52;23.90;99.90
9847;DHT22;68671;50.084;8.794;2023-06-22T04:57:21;24.00;99.90
9847;DHT22;68671;50.084;8.794;2023-06-22T04:59:58;24.00;99.90
9847;DHT22;68671;50.084;8.794;2023-06-22T05:02:32;24.00;99.90
9847;DHT22;68671;50.084;8.794;2023-06-22T05:04:59;24.00;99.90
9847;DHT22;68671;50.084;8.794;2023-06-22T05:07:26;24.00;99.90
9847;DHT22;68671;50.084;8.794;2023-06-22T05:09:54;24.10;99.90
9847;DHT22;68671;50.084;8.794;2023-06-22T05:12:21;24.10;99.90
9847;DHT22;68671;50.084;8.794;2023-06-22T05:14:48;24.00;99.90
9847;DHT22;68671;50.084;8.794;2023-06-22T05:17:15;24.00;99.90
9847;DHT22;68671;50.084;8.794;2023-06-22T05:19:45;24.00;99.90
9847;DHT22;68671;50.084;8.794;2023-06-22T05:22:15;23.90;99.90
9847;DHT22;68671;50.084;8.794;2023-06-22T05:24:42;23.90;99.90
9847;DHT22;68671;50.084;8.794;2023-06-22T05:27:11;23.90;99.90
9847;DHT22;68671;50.084;8.794;2023-06-22T05:29:38;23.90;99.90
9847;DHT22;68671;50.084;8.794;2023-06-22T05:32:06;23.80;99.90
9847;DHT22;68671;50.084;8.794;2023-06-22T05:34:33;23.80;99.90
9847;DHT22;68671;50.084;8.794;2023-06-22T05:37:01;23.80;99.90
9847;DHT22;68671;50.084;8.794;2023-06-22T05:39:28;23.70;99.90
9847;DHT22;68671;50.084;8.794;2023-06-22T05:41:55;23.70;99.90
9847;DHT22;68671;50.084;8.794;2023-06-22T05:44:23;23.70;99.90
9847;DHT22;68671;50.084;8.794;2023-06-22T05:46:50;23.70;99.90
9847;DHT22;68671;50.084;8.794;2023-06-22T05:49:17;23.60;99.90
9847;DHT22;68671;50.084;8.794;2023-06-22T05:51:44;23.60;99.90
9847;DHT22;68671;50.084;8.794;2023-06-22T05:54:11;23.60;99.90
9847;DHT22;68671;50.084;8.794;2023-06-22T05:56:39;23.60;99.90
9847;DHT22;68671;50.084;8.794;2023-06-22T05:59:06;23.60;99.90
9847;DHT22;68671;50.084;8.794;2023-06-22T06:01:34;23.60;99.90
9847;DHT22;68671;50.084;8.794;2023-06-22T06:04:05;23.70;99.90
9847;DHT22;68671;50.084;8.794;2023-06-22T06:06:33;23.70;99.90
9847;DHT22;68671;50.084;8.794;2023-06-22T06:09:02;23.70;99.90
9847;DHT22;68671;50.084;8.794;2023-06-22T06:11:29;23.80;99.90
9847;DHT22;68671;50.084;8.794;2023-06-22T06:13:56;23.80;99.90
9847;DHT22;68671;50.084;8.794;2023-06-22T06:16:23;23.80;99.90
9847;DHT22;68671;50.084;8.794;2023-06-22T06:18:52;23.80;99.90
9847;DHT22;68671;50.084;8.794;2023-06-22T06:21:21;23.80;99.90
9847;DHT22;68671;50.084;8.794;2023-06-22T06:23:48;23.80;99.90
9847;DHT22;68671;50.084;8.794;2023-06-22T06:26:15;23.80;99.90
9847;DHT22;68671;50.084;8.794;2023-06-22T06:28:42;23.80;99.90
9847;DHT22;68671;50.084;8.794;2023-06-22T06:31:10;23.70;99.90
9847;DHT22;68671;50.084;8.794;2023-06-22T06:33:42;23.60;99.90
9847;DHT22;68671;50.084;8.794;2023-06-22T06:36:11;23.60;99.90
9847;DHT22;68671;50.084;8.794;2023-06-22T06:38:38;23.60;99.90
9847;DHT22;68671;50.084;8.794;2023-06-22T06:41:05;23.60;99.90
9847;DHT22;68671;50.084;8.794;2023-06-22T06:43:32;23.60;99.90
9847;DHT22;68671;50.084;8.794;2023-06-22T06:45:59;23.60;99.90
9847;DHT22;68671;50.084;8.794;2023-06-22T06:48:26;23.60;99.90
9847;DHT22;68671;50.084;8.794;2023-06-22T06:50:53;23.70;99.90
9847;DHT22;68671;50.084;8.794;2023-06-22T06:53:21;23.70;99.90
9847;DHT22;68671;50.084;8.794;2023-06-22T06:55:48;23.70;99.90
9847;DHT22;68671;50.084;8.794;2023-06-22T06:58:15;23.80;99.90
9847;DHT22;68671;50.084;8.794;2023-06-22T07:00:42;23.80;99.90
9847;DHT22;68671;50.084;8.794;2023-06-22T07:03:09;23.90;99.90
9847;DHT22;68671;50.084;8.794;2023-06-22T07:05:36;23.90;99.90
9847;DHT22;68671;50.084;8.794;2023-06-22T07:08:03;24.00;99.90
9847;DHT22;68671;50.084;8.794;2023-06-22T07:10:32;24.10;99.90
9847;DHT22;68671;50.084;8.794;2023-06-22T07:12:59;24.20;99.90
9847;DHT22;68671;50.084;8.794;2023-06-22T07:15:26;24.20;99.90
9847;DHT22;68671;50.084;8.794;2023-06-22T07:17:53;24.40;99.90
9847;DHT22;68671;50.084;8.794;2023-06-22T07:20:20;24.30;99.90
9847;DHT22;68671;50.084;8.794;2023-06-22T07:22:47;24.30;99.90
9847;DHT22;68671;50.084;8.794;2023-06-22T07:25:14;24.40;99.90
9847;DHT22;68671;50.084;8.794;2023-06-22T07:27:57;24.40;99.90
9847;DHT22;68671;50.084;8.794;2023-06-22T07:30:25;24.40;99.90
9847;DHT22;68671;50.084;8.794;2023-06-22T07:32:52;24.50;99.90
9847;DHT22;68671;50.084;8.794;2023-06-22T07:35:19;24.50;99.90
9847;DHT22;68671;50.084;8.794;2023-06-22T07:37:46;24.50;99.90
9847;DHT22;68671;50.084;8.794;2023-06-22T07:40:13;24.60;99.90
9847;DHT22;68671;50.084;8.794;2023-06-22T07:42:40;24.70;99.90
9847;DHT22;68671;50.084;8.794;2023-06-22T07:45:09;24.80;99.90
9847;DHT22;68671;50.084;8.794;2023-06-22T07:47:36;24.80;99.90
9847;DHT22;68671;50.084;8.794;2023-06-22T07:50:07;24.90;99.90
9847;DHT22;68671;50.084;8.794;2023-06-22T07:52:34;25.00;99.90
9847;DHT22;68671;50.084;8.794;2023-06-22T07:55:00;25.00;99.90
9847;DHT22;68671;50.084;8.794;2023-06-22T07:57:28;25.00;99.90
9847;DHT22;68671;50.084;8.794;2023-06-22T07:59:59;25.10;99.90
9847;DHT22;68671;50.084;8.794;2023-06-22T08:05:51;25.20;99.90
9847;DHT22;68671;50.084;8.794;2023-06-22T08:08:20;25.30;99.90
9847;DHT22;68671;50.084;8.794;2023-06-22T08:10:50;25.30;99.90
9847;DHT22;68671;50.084;8.794;2023-06-22T08:13:23;25.30;99.90
9847;DHT22;68671;50.084;8.794;2023-06-22T08:18:54;25.30;99.90
9847;DHT22;68671;50.084;8.794;2023-06-22T08:21:23;25.20;99.90
9847;DHT22;68671;50.084;8.794;2023-06-22T08:23:52;25.10;99.90
9847;DHT22;68671;50.084;8.794;2023-06-22T08:27:07;25.00;99.90
9847;DHT22;68671;50.084;8.794;2023-06-22T08:29:53;25.00;99.90
9847;DHT22;68671;50.084;8.794;2023-06-22T08:33:09;25.00;99.90
9847;DHT22;68671;50.084;8.794;2023-06-22T08:53:22;25.30;99.90
9847;DHT22;68671;50.084;8.794;2023-06-22T08:55:57;25.30;99.90
9847;DHT22;68671;50.084;8.794;2023-06-22T08:58:25;25.20;99.90
9847;DHT22;68671;50.084;8.794;2023-06-22T09:04:14;25.20;99.90
9847;DHT22;68671;50.084;8.794;2023-06-22T09:06:42;25.20;99.90
9847;DHT22;68671;50.084;8.794;2023-06-22T09:09:13;25.10;99.90
9847;DHT22;68671;50.084;8.794;2023-06-22T09:12:37;25.10;99.90
9847;DHT22;68671;50.084;8.794;2023-06-22T09:15:16;25.10;99.90
9847;DHT22;68671;50.084;8.794;2023-06-22T09:17:43;25.20;99.90
9847;DHT22;68671;50.084;8.794;2023-06-22T09:24:13;25.30;99.90
9847;DHT22;68671;50.084;8.794;2023-06-22T09:30:32;25.40;99.90
9847;DHT22;68671;50.084;8.794;2023-06-22T09:33:34;25.60;99.90
9847;DHT22;68671;50.084;8.794;2023-06-22T09:36:37;25.70;99.90
9847;DHT22;68671;50.084;8.794;2023-06-22T09:39:07;25.90;99.90
9847;DHT22;68671;50.084;8.794;2023-06-22T09:50:28;26.60;99.90
9847;DHT22;68671;50.084;8.794;2023-06-22T09:53:00;26.70;99.90
9847;DHT22;68671;50.084;8.794;2023-06-22T09:55:31;26.90;99.90
9847;DHT22;68671;50.084;8.794;2023-06-22T09:57:59;26.90;99.90
9847;DHT22;68671;50.084;8.794;2023-06-22T10:00:38;27.00;99.90
9847;DHT22;68671;50.084;8.794;2023-06-22T10:03:13;27.10;99.90
9847;DHT22;68671;50.084;8.794;2023-06-22T10:05:48;27.10;99.90
9847;DHT22;68671;50.084;8.794;2023-06-22T10:08:22;27.20;99.90
9847;DHT22;68671;50.084;8.794;2023-06-22T10:10:57;27.30;99.90
9847;DHT22;68671;50.084;8.794;2023-06-22T10:13:28;27.30;99.90
9847;DHT22;68671;50.084;8.794;2023-06-22T10:15:56;27.40;99.90
9847;DHT22;68671;50.084;8.794;2023-06-22T10:18:26;27.30;99.90
9847;DHT22;68671;50.084;8.794;2023-06-22T10:20:55;27.40;99.90
9847;DHT22;68671;50.084;8.794;2023-06-22T10:23:22;27.50;99.90
9847;DHT22;68671;50.084;8.794;2023-06-22T10:25:49;27.60;99.90
9847;DHT22;68671;50.084;8.794;2023-06-22T10:28:16;27.60;99.90
9847;DHT22;68671;50.084;8.794;2023-06-22T10:30:43;27.80;99.90
9847;DHT22;68671;50.084;8.794;2023-06-22T10:33:11;27.80;99.90
9847;DHT22;68671;50.084;8.794;2023-06-22T10:35:38;27.90;99.90
9847;DHT22;68671;50.084;8.794;2023-06-22T10:38:07;27.90;99.90
9847;DHT22;68671;50.084;8.794;2023-06-22T10:40:34;27.90;99.90
9847;DHT22;68671;50.084;8.794;2023-06-22T10:43:01;28.00;99.90
9847;DHT22;68671;50.084;8.794;2023-06-22T10:45:28;28.10;99.90
9847;DHT22;68671;50.084;8.794;2023-06-22T10:47:55;28.10;99.90
9847;DHT22;68671;50.084;8.794;2023-06-22T10:50:22;28.20;99.90
9847;DHT22;68671;50.084;8.794;2023-06-22T10:52:49;28.20;99.90
9847;DHT22;68671;50.084;8.794;2023-06-22T10:55:18;28.20;99.90
9847;DHT22;68671;50.084;8.794;2023-06-22T10:57:45;28.10;99.90
9847;DHT22;68671;50.084;8.794;2023-06-22T11:00:13;28.10;99.90
9847;DHT22;68671;50.084;8.794;2023-06-22T11:02:41;28.00;99.90
9847;DHT22;68671;50.084;8.794;2023-06-22T11:05:08;28.00;99.90
9847;DHT22;68671;50.084;8.794;2023-06-22T11:07:36;28.00;99.90
9847;DHT22;68671;50.084;8.794;2023-06-22T11:10:04;28.00;99.90
9847;DHT22;68671;50.084;8.794;2023-06-22T11:12:32;28.00;99.90
9847;DHT22;68671;50.084;8.794;2023-06-22T11:14:59;28.00;99.90
9847;DHT22;68671;50.084;8.794;2023-06-22T11:17:27;28.00;99.90
9847;DHT22;68671;50.084;8.794;2023-06-22T11:19:54;28.00;99.90
9847;DHT22;68671;50.084;8.794;2023-06-22T11:22:21;28.00;99.90
9847;DHT22;68671;50.084;8.794;2023-06-22T11:24:48;27.90;99.90
9847;DHT22;68671;50.084;8.794;2023-06-22T11:27:15;27.80;99.90
9847;DHT22;68671;50.084;8.794;2023-06-22T11:29:43;27.80;99.90
9847;DHT22;68671;50.084;8.794;2023-06-22T11:32:10;27.70;99.90
9847;DHT22;68671;50.084;8.794;2023-06-22T11:34:37;27.70;99.90
9847;DHT22;68671;50.084;8.794;2023-06-22T11:37:05;27.70;99.90
9847;DHT22;68671;50.084;8.794;2023-06-22T11:39:32;27.70;99.90
9847;DHT22;68671;50.084;8.794;2023-06-22T11:41:59;27.70;99.90
9847;DHT22;68671;50.084;8.794;2023-06-22T11:44:26;27.60;99.90
9847;DHT22;68671;50.084;8.794;2023-06-22T11:46:54;27.60;99.90
9847;DHT22;68671;50.084;8.794;2023-06-22T11:49:21;27.60;99.90
9847;DHT22;68671;50.084;8.794;2023-06-22T11:51:48;27.50;99.90
9847;DHT22;68671;50.084;8.794;2023-06-22T11:54:15;27.50;99.90
9847;DHT22;68671;50.084;8.794;2023-06-22T11:56:42;27.40;99.90
9847;DHT22;68671;50.084;8.794;2023-06-22T11:59:09;27.40;99.90
9847;DHT22;68671;50.084;8.794;2023-06-22T12:01:36;27.30;99.90
9847;DHT22;68671;50.084;8.794;2023-06-22T12:04:05;27.20;99.90
9847;DHT22;68671;50.084;8.794;2023-06-22T12:06:32;27.10;99.90
9847;DHT22;68671;50.084;8.794;2023-06-22T12:09:01;26.90;99.90
9847;DHT22;68671;50.084;8.794;2023-06-22T12:11:30;26.60;99.90
9847;DHT22;68671;50.084;8.794;2023-06-22T12:13:57;26.50;99.90
9847;DHT22;68671;50.084;8.794;2023-06-22T12:16:27;26.30;99.90
9847;DHT22;68671;50.084;8.794;2023-06-22T12:18:54;26.10;99.90
9847;DHT22;68671;50.084;8.794;2023-06-22T12:21:22;25.80;99.90
9847;DHT22;68671;50.084;8.794;2023-06-22T12:23:49;25.60;99.90
9847;DHT22;68671;50.084;8.794;2023-06-22T12:26:16;25.50;99.90
9847;DHT22;68671;50.084;8.794;2023-06-22T12:28:43;25.30;99.90
9847;DHT22;68671;50.084;8.794;2023-06-22T12:31:10;25.20;99.90
9847;DHT22;68671;50.084;8.794;2023-06-22T12:33:40;25.10;99.90
9847;DHT22;68671;50.084;8.794;2023-06-22T12:36:07;25.00;99.90
9847;DHT22;68671;50.084;8.794;2023-06-22T12:38:36;25.00;99.90
9847;DHT22;68671;50.084;8.794;2023-06-22T12:41:03;24.80;99.90
9847;DHT22;68671;50.084;8.794;2023-06-22T12:43:30;24.70;99.90
9847;DHT22;68671;50.084;8.794;2023-06-22T12:45:57;24.50;99.90
9847;DHT22;68671;50.084;8.794;2023-06-22T12:48:26;24.40;99.90
9847;DHT22;68671;50.084;8.794;2023-06-22T12:50:53;24.30;99.90
9847;DHT22;68671;50.084;8.794;2023-06-22T12:53:20;24.20;99.90
9847;DHT22;68671;50.084;8.794;2023-06-22T12:55:49;24.20;99.90
9847;DHT22;68671;50.084;8.794;2023-06-22T12:58:16;24.20;99.90
9847;DHT22;68671;50.084;8.794;2023-06-22T13:00:43;24.30;99.90
9847;DHT22;68671;50.084;8.794;2023-06-22T13:03:10;24.30;99.90
9847;DHT22;68671;50.084;8.794;2023-06-22T13:05:37;24.20;99.90
9847;DHT22;68671;50.084;8.794;2023-06-22T13:08:04;24.10;99.90
9847;DHT22;68671;50.084;8.794;2023-06-22T13:10:31;24.00;99.90
9847;DHT22;68671;50.084;8.794;2023-06-22T13:13:00;23.90;99.90
9847;DHT22;68671;50.084;8.794;2023-06-22T13:15:27;23.90;99.90
9847;DHT22;68671;50.084;8.794;2023-06-22T13:17:55;23.80;99.90
9847;DHT22;68671;50.084;8.794;2023-06-22T13:20:22;23.80;99.90
9847;DHT22;68671;50.084;8.794;2023-06-22T13:22:49;23.90;99.90
9847;DHT22;68671;50.084;8.794;2023-06-22T13:25:16;23.90;99.90
9847;DHT22;68671;50.084;8.794;2023-06-22T13:27:45;24.00;99.90
9847;DHT22;68671;50.084;8.794;2023-06-22T13:30:14;24.00;99.90
9847;DHT22;68671;50.084;8.794;2023-06-22T13:32:42;24.00;99.90
9847;DHT22;68671;50.084;8.794;2023-06-22T13:35:09;24.00;99.90
9847;DHT22;68671;50.084;8.794;2023-06-22T13:37:36;24.10;99.90
9847;DHT22;68671;50.084;8.794;2023-06-22T13:40:04;24.00;99.90
9847;DHT22;68671;50.084;8.794;2023-06-22T13:42:32;24.10;99.90
9847;DHT22;68671;50.084;8.794;2023-06-22T13:44:59;24.10;99.90
9847;DHT22;68671;50.084;8.794;2023-06-22T13:47:30;24.20;99.90
9847;DHT22;68671;50.084;8.794;2023-06-22T13:49:57;24.20;99.90
9847;DHT22;68671;50.084;8.794;2023-06-22T13:52:25;24.10;99.90
9847;DHT22;68671;50.084;8.794;2023-06-22T13:54:52;24.00;99.90
9847;DHT22;68671;50.084;8.794;2023-06-22T13:57:19;24.00;99.90
9847;DHT22;68671;50.084;8.794;2023-06-22T13:59:45;24.00;99.90
9847;DHT22;68671;50.084;8.794;2023-06-22T14:02:12;23.90;99.90
9847;DHT22;68671;50.084;8.794;2023-06-22T14:04:41;23.90;99.90
9847;DHT22;68671;50.084;8.794;2023-06-22T14:07:08;24.00;99.90
9847;DHT22;68671;50.084;8.794;2023-06-22T14:09:35;24.00;99.90
9847;DHT22;68671;50.084;8.794;2023-06-22T14:12:06;24.00;99.90
9847;DHT22;68671;50.084;8.794;2023-06-22T14:14:37;24.10;99.90
9847;DHT22;68671;50.084;8.794;2023-06-22T14:17:04;24.20;99.90
9847;DHT22;68671;50.084;8.794;2023-06-22T14:19:31;24.20;99.90
9847;DHT22;68671;50.084;8.794;2023-06-22T14:22:00;24.20;99.90
9847;DHT22;68671;50.084;8.794;2023-06-22T14:24:27;24.20;99.90
9847;DHT22;68671;50.084;8.794;2023-06-22T14:26:55;24.30;99.90
9847;DHT22;68671;50.084;8.794;2023-06-22T14:29:22;24.40;99.90
9847;DHT22;68671;50.084;8.794;2023-06-22T14:31:49;24.40;99.90
9847;DHT22;68671;50.084;8.794;2023-06-22T14:34:16;24.50;99.90
9847;DHT22;68671;50.084;8.794;2023-06-22T14:36:43;24.50;99.90
9847;DHT22;68671;50.084;8.794;2023-06-22T14:39:12;24.50;99.90
9847;DHT22;68671;50.084;8.794;2023-06-22T14:41:39;24.50;99.90
9847;DHT22;68671;50.084;8.794;2023-06-22T14:44:06;24.60;99.90
9847;DHT22;68671;50.084;8.794;2023-06-22T14:46:33;24.60;99.90
9847;DHT22;68671;50.084;8.794;2023-06-22T14:49:02;24.60;99.90
9847;DHT22;68671;50.084;8.794;2023-06-22T14:51:34;24.70;99.90
9847;DHT22;68671;50.084;8.794;2023-06-22T14:54:02;24.70;99.90
9847;DHT22;68671;50.084;8.794;2023-06-22T14:56:38;24.80;99.90
9847;DHT22;68671;50.084;8.794;2023-06-22T14:59:10;24.80;99.90
9847;DHT22;68671;50.084;8.794;2023-06-22T15:01:37;24.70;99.90
9847;DHT22;68671;50.084;8.794;2023-06-22T15:04:04;24.70;99.90
9847;DHT22;68671;50.084;8.794;2023-06-22T15:06:31;24.40;99.90
9847;DHT22;68671;50.084;8.794;2023-06-22T15:08:58;23.90;99.90
9847;DHT22;68671;50.084;8.794;2023-06-22T15:11:25;23.60;99.90
9847;DHT22;68671;50.084;8.794;2023-06-22T15:13:57;23.30;99.90
9847;DHT22;68671;50.084;8.794;2023-06-22T15:16:31;23.10;99.90
9847;DHT22;68671;50.084;8.794;2023-06-22T15:19:07;23.00;99.90
9847;DHT22;68671;50.084;8.794;2023-06-22T15:21:43;22.90;99.90
9847;DHT22;68671;50.084;8.794;2023-06-22T15:24:23;22.90;99.90
9847;DHT22;68671;50.084;8.794;2023-06-22T15:26:52;22.90;99.90
9847;DHT22;68671;50.084;8.794;2023-06-22T15:29:21;22.90;99.90
9847;DHT22;68671;50.084;8.794;2023-06-22T15:31:48;22.90;99.90
9847;DHT22;68671;50.084;8.794;2023-06-22T15:34:16;22.90;99.90
9847;DHT22;68671;50.084;8.794;2023-06-22T15:36:43;22.90;99.90
9847;DHT22;68671;50.084;8.794;2023-06-22T15:39:19;23.00;99.90
9847;DHT22;68671;50.084;8.794;2023-06-22T15:41:54;23.00;99.90
9847;DHT22;68671;50.084;8.794;2023-06-22T15:44:32;23.10;99.90
9847;DHT22;68671;50.084;8.794;2023-06-22T15:47:02;23.20;99.90
9847;DHT22;68671;50.084;8.794;2023-06-22T15:49:36;23.20;99.90
9847;DHT22;68671;50.084;8.794;2023-06-22T15:52:12;23.20;99.90
9847;DHT22;68671;50.084;8.794;2023-06-22T15:54:56;23.10;99.90
9847;DHT22;68671;50.084;8.794;2023-06-22T15:57:26;23.00;99.90
9847;DHT22;68671;50.084;8.794;2023-06-22T15:59:56;22.60;99.90
9847;DHT22;68671;50.084;8.794;2023-06-22T16:02:26;22.30;99.90
9847;DHT22;68671;50.084;8.794;2023-06-22T16:04:53;22.10;99.90
9847;DHT22;68671;50.084;8.794;2023-06-22T16:07:22;21.80;99.90
9847;DHT22;68671;50.084;8.794;2023-06-22T16:09:49;21.60;99.90
9847;DHT22;68671;50.084;8.794;2023-06-22T16:12:16;21.50;99.90
9847;DHT22;68671;50.084;8.794;2023-06-22T16:14:44;21.40;99.90
9847;DHT22;68671;50.084;8.794;2023-06-22T16:17:12;21.40;99.90
9847;DHT22;68671;50.084;8.794;2023-06-22T16:19:40;21.30;99.90
9847;DHT22;68671;50.084;8.794;2023-06-22T16:22:07;21.20;99.90
9847;DHT22;68671;50.084;8.794;2023-06-22T16:24:34;21.10;99.90
9847;DHT22;68671;50.084;8.794;2023-06-22T16:27:04;21.10;99.90
9847;DHT22;68671;50.084;8.794;2023-06-22T16:29:35;21.00;99.90
9847;DHT22;68671;50.084;8.794;2023-06-22T16:32:02;21.00;99.90
9847;DHT22;68671;50.084;8.794;2023-06-22T16:34:30;21.00;99.90
9847;DHT22;68671;50.084;8.794;2023-06-22T16:36:57;20.90;99.90
9847;DHT22;68671;50.084;8.794;2023-06-22T16:39:24;20.90;99.90